Time;durP1;ratioP1;P1;durP2;ratioP2;P2;SDS_P1;SDS_P2;PMS_P1;PMS_P2;Temp;Humidity;BMP_temperature;BMP_pressure;BME280_temperature;BME280_humidity;BME280_pressure;Samples;Min_cycle;Max_cycle;Signal;HPM_P1;HPM_P2
2022/12/01 00:01:07;;;;;;;24.30;9.70;;;;;;;-0.96;87.82;99565.20;1643153;87;27423;-79
2022/12/01 00:03:33;;;;;;;13.95;6.28;;;;;;;-0.95;87.73;99560.11;1643455;87;25779;-75
2022/12/01 00:06:08;;;;;;;19.50;8.48;;;;;;;-0.91;87.83;99561.86;1643490;87;25659;-79
2022/12/01 00:08:35;;;;;;;11.78;5.40;;;;;;;-0.86;87.77;99560.70;1642069;87;26490;-78
2022/12/01 00:11:09;;;;;;;12.10;5.72;;;;;;;-0.87;87.77;99560.38;1643123;87;25622;-79
2022/12/01 00:13:36;;;;;;;23.75;9.05;;;;;;;-0.85;87.74;99568.23;1643440;87;28098;-70
2022/12/01 00:16:15;;;;;;;14.40;6.22;;;;;;;-0.84;87.80;99562.64;1643250;87;25631;-80
2022/12/01 00:18:43;;;;;;;22.73;9.33;;;;;;;-0.84;87.80;99561.30;1643645;87;25631;-76
2022/12/01 00:21:19;;;;;;;12.15;4.50;;;;;;;-0.82;87.86;99560.57;1643103;86;25757;-78
2022/12/01 00:23:48;;;;;;;19.67;8.83;;;;;;;-0.80;87.76;99558.47;1643506;87;25628;-72
2022/12/01 00:26:16;;;;;;;16.73;7.65;;;;;;;-0.76;87.79;99561.56;1643391;87;27494;-70
2022/12/01 00:28:43;;;;;;;14.43;6.28;;;;;;;-0.73;87.69;99561.64;1643327;87;25693;-79
2022/12/01 00:31:12;;;;;;;18.85;8.15;;;;;;;-0.73;87.67;99560.30;1643390;87;25629;-72
2022/12/01 00:33:39;;;;;;;21.68;9.00;;;;;;;-0.71;87.63;99559.06;1643089;87;25788;-78
2022/12/01 00:36:07;;;;;;;20.27;9.05;;;;;;;-0.70;87.61;99561.21;1643525;87;25680;-74
2022/12/01 00:38:34;;;;;;;8.55;4.15;;;;;;;-0.65;87.78;99561.40;1645045;86;27436;-79
2022/12/01 00:41:01;;;;;;;15.80;7.03;;;;;;;-0.66;87.40;99563.80;1644875;87;25434;-78
2022/12/01 00:43:27;;;;;;;20.52;7.95;;;;;;;-0.64;87.47;99561.19;1645286;87;25763;-79
2022/12/01 00:45:55;;;;;;;15.95;8.65;;;;;;;-0.62;87.53;99548.85;1645144;87;25831;-80
2022/12/01 00:48:21;;;;;;;15.43;7.65;;;;;;;-0.60;87.46;99563.44;1645303;87;25836;-77
2022/12/01 00:50:50;;;;;;;18.07;7.78;;;;;;;-0.59;87.41;99556.49;1645241;86;27414;-79
2022/12/01 00:53:17;;;;;;;18.60;8.13;;;;;;;-0.56;87.41;99556.06;1644974;87;27215;-79
2022/12/01 00:55:44;;;;;;;20.10;7.25;;;;;;;-0.55;87.40;99551.51;1645098;87;25726;-79
2022/12/01 00:58:11;;;;;;;17.32;8.15;;;;;;;-0.57;87.28;99545.00;1645335;87;25731;-69
2022/12/01 01:00:41;;;;;;;19.17;8.25;;;;;;;-0.55;87.45;99552.31;1645266;87;25431;-70
2022/12/01 01:03:09;;;;;;;12.35;5.30;;;;;;;-0.54;87.46;99545.91;1645605;87;32953;-70
2022/12/01 01:05:37;;;;;;;12.88;5.55;;;;;;;-0.55;87.24;99546.13;1645301;87;25635;-71
2022/12/01 01:08:10;;;;;;;14.45;6.55;;;;;;;-0.58;87.44;99542.52;1645456;87;25695;-75
2022/12/01 01:10:42;;;;;;;18.62;8.23;;;;;;;-0.57;87.50;99540.12;1645481;87;25751;-79
2022/12/01 01:13:08;;;;;;;17.25;7.28;;;;;;;-0.53;87.50;99542.67;1645510;87;25506;-76
2022/12/01 01:15:35;;;;;;;12.28;5.30;;;;;;;-0.52;87.40;99543.80;1645228;87;28207;-68
2022/12/01 01:18:03;;;;;;;11.63;5.37;;;;;;;-0.52;87.37;99540.27;1645276;87;25644;-79
2022/12/01 01:20:29;;;;;;;8.35;4.85;;;;;;;-0.54;87.38;99536.48;1645244;87;25643;-79
2022/12/01 01:22:56;;;;;;;16.70;8.05;;;;;;;-0.53;87.46;99552.93;1645051;87;25836;-79
2022/12/01 01:25:23;;;;;;;12.80;6.80;;;;;;;-0.55;87.46;99542.09;1645159;87;25700;-78
2022/12/01 01:27:49;;;;;;;22.10;9.20;;;;;;;-0.56;87.44;99539.91;1645115;87;27379;-80
2022/12/01 01:30:17;;;;;;;9.28;4.65;;;;;;;-0.52;87.46;99534.89;1645041;87;27234;-79
2022/12/01 01:32:43;;;;;;;11.18;5.70;;;;;;;-0.52;87.47;99534.89;1645424;87;25672;-79
2022/12/01 01:35:10;;;;;;;14.25;6.95;;;;;;;-0.57;87.52;99523.97;1645035;87;25868;-70
2022/12/01 01:37:36;;;;;;;13.53;6.10;;;;;;;-0.59;87.72;99527.39;1643755;87;25526;-79
2022/12/01 01:40:04;;;;;;;17.48;7.58;;;;;;;-0.57;87.67;99521.28;1643499;86;27370;-74
2022/12/01 01:42:31;;;;;;;14.10;6.33;;;;;;;-0.58;87.70;99513.70;1643430;87;25747;-71
2022/12/01 01:44:58;;;;;;;19.98;8.13;;;;;;;-0.56;87.82;99512.98;1643266;87;25491;-80
2022/12/01 01:47:36;;;;;;;15.60;7.35;;;;;;;-0.54;87.76;99514.94;1643224;87;25668;-76
2022/12/01 01:50:08;;;;;;;15.18;6.97;;;;;;;-0.52;87.73;99513.34;1642749;87;25733;-77
2022/12/01 01:52:39;;;;;;;17.45;7.87;;;;;;;-0.52;87.67;99514.69;1643596;87;27460;-75
2022/12/01 01:55:07;;;;;;;18.77;9.13;;;;;;;-0.46;87.77;99504.39;1643507;87;25669;-80
2022/12/01 01:57:34;;;;;;;14.83;6.42;;;;;;;-0.41;87.64;99506.42;1643437;86;25640;-79
2022/12/01 02:00:09;;;;;;;22.20;9.60;;;;;;;-0.45;87.62;99502.02;1643198;86;25742;-71
2022/12/01 02:02:44;;;;;;;17.60;8.40;;;;;;;-0.42;87.70;99494.02;1643706;87;25688;-70
2022/12/01 02:05:24;;;;;;;21.97;9.78;;;;;;;-0.41;87.56;99492.96;1643276;87;27459;-79
2022/12/01 02:07:54;;;;;;;25.55;11.10;;;;;;;-0.41;87.78;99491.62;1632615;87;25508;-78
2022/12/01 02:10:30;;;;;;;19.70;8.77;;;;;;;-0.37;87.71;99485.28;1643808;87;25699;-80
2022/12/01 02:13:20;;;;;;;20.72;9.50;;;;;;;-0.34;87.77;99498.30;1642665;87;26648;-80
2022/12/01 02:16:18;;;;;;;18.42;9.20;;;;;;;-0.32;87.65;99496.23;1642583;87;25718;-80
2022/12/01 02:19:11;;;;;;;16.30;7.95;;;;;;;-0.30;87.58;99492.26;1643400;87;28200;-79
2022/12/01 02:22:13;;;;;;;14.53;6.75;;;;;;;-0.29;87.66;99497.94;1643201;87;25773;-70
2022/12/01 02:25:03;;;;;;;23.92;8.38;;;;;;;-0.28;87.59;99496.91;1591336;90;25789;-78
2022/12/01 02:28:02;;;;;;;16.93;8.43;;;;;;;-0.29;87.65;99498.48;1597044;89;25828;-80
2022/12/01 02:30:48;;;;;;;18.60;7.60;;;;;;;-0.27;87.69;99495.86;1597019;89;25499;-80
2022/12/01 02:33:18;;;;;;;24.77;10.15;;;;;;;-0.26;87.68;99497.49;1597141;89;27560;-78
2022/12/01 02:36:02;;;;;;;17.17;8.50;;;;;;;-0.26;87.76;99493.97;1600203;88;25564;-80
2022/12/01 02:38:49;;;;;;;24.67;10.85;;;;;;;-0.28;87.74;99492.03;1610814;87;25677;-68
2022/12/01 02:41:30;;;;;;;22.27;9.88;;;;;;;-0.31;88.00;99503.25;1592915;89;27861;-80
2022/12/01 02:44:04;;;;;;;25.95;11.83;;;;;;;-0.31;88.07;99497.35;1593641;90;32719;-80
2022/12/01 02:46:41;;;;;;;25.08;11.50;;;;;;;-0.30;88.00;99493.60;1593179;90;27387;-80
2022/12/01 02:49:18;;;;;;;23.55;10.43;;;;;;;-0.27;88.09;99486.42;1593228;90;25511;-80
2022/12/01 02:51:45;;;;;;;14.10;6.10;;;;;;;-0.25;87.99;99474.09;1592880;90;25633;-80
2022/12/01 02:54:14;;;;;;;23.50;8.70;;;;;;;-0.21;87.99;99471.23;1593232;90;25749;-75
2022/12/01 02:56:45;;;;;;;21.87;9.80;;;;;;;-0.18;88.01;99480.23;1593510;90;25579;-80
2022/12/01 02:59:12;;;;;;;;;;;;;;;-0.19;88.00;99479.10;1595909;90;27552;-78
2022/12/01 03:02:05;;;;;;;23.07;9.88;;;;;;;-0.19;88.09;99482.63;1611078;86;25744;-78
2022/12/01 03:05:05;;;;;;;15.00;7.12;;;;;;;-0.22;88.24;99485.77;1645089;87;25532;-78
2022/12/01 03:07:45;;;;;;;21.27;9.95;;;;;;;-0.21;88.29;99484.71;1645339;87;25759;-80
2022/12/01 03:10:32;;;;;;;17.35;8.40;;;;;;;-0.20;88.33;99480.16;1645010;87;33339;-69
2022/12/01 03:13:25;;;;;;;21.42;9.85;;;;;;;-0.21;88.38;99475.80;1644104;87;27686;-80
2022/12/01 03:16:24;;;;;;;18.45;6.47;;;;;;;-0.20;88.52;99484.20;1644960;87;27251;-79
2022/12/01 03:18:57;;;;;;;22.05;9.73;;;;;;;-0.19;88.55;99480.45;1645432;86;25700;-79
2022/12/01 03:21:33;;;;;;;26.40;11.97;;;;;;;-0.19;88.52;99480.45;1645257;87;25724;-78
2022/12/01 03:24:10;;;;;;;20.23;8.08;;;;;;;-0.17;88.62;99483.21;1645369;87;25669;-79
2022/12/01 03:26:40;;;;;;;19.45;7.78;;;;;;;-0.16;88.48;99475.45;1645319;87;27451;-79
2022/12/01 03:29:13;;;;;;;9.80;5.22;;;;;;;-0.11;88.45;99469.91;1644925;87;27276;-80
2022/12/01 03:31:47;;;;;;;17.87;8.90;;;;;;;-0.08;88.33;99471.65;1645351;87;25712;-79
2022/12/01 03:34:22;;;;;;;20.97;10.72;;;;;;;-0.07;88.34;99470.59;1644331;87;27890;-76
2022/12/01 03:36:56;;;;;;;22.75;8.88;;;;;;;-0.07;88.30;99469.23;1644305;87;25497;-79
2022/12/01 03:39:27;;;;;;;24.98;10.88;;;;;;;-0.11;88.30;99463.17;1642421;87;26943;-79
2022/12/01 03:41:56;;;;;;;;;;;;;;;-0.10;88.38;99468.85;1645867;87;25792;-79
2022/12/01 03:44:28;;;;;;;24.67;10.75;;;;;;;-0.12;88.45;99462.34;1642661;87;25640;-79
2022/12/01 03:47:03;;;;;;;15.65;7.17;;;;;;;-0.14;88.45;99457.17;1643345;87;26591;-79
2022/12/01 03:49:30;;;;;;;15.88;6.85;;;;;;;-0.12;88.52;99454.80;1643293;87;25519;-79
2022/12/01 03:52:27;;;;;;;22.10;8.98;;;;;;;-0.10;88.65;99458.08;1643514;87;27424;-79
2022/12/01 03:55:27;;;;;;;9.80;4.87;;;;;;;-0.07;88.51;99456.28;1560970;91;26020;-79
2022/12/01 03:57:59;;;;;;;30.90;12.93;;;;;;;-0.03;88.51;99455.61;1560279;91;25691;-78
2022/12/01 04:00:26;;;;;;;21.42;8.23;;;;;;;-0.01;88.46;99456.73;1559919;91;27841;-80
2022/12/01 04:03:02;;;;;;;20.15;7.75;;;;;;;-0.03;88.30;99453.46;1560948;91;25523;-79
2022/12/01 04:05:28;;;;;;;21.40;8.78;;;;;;;-0.05;88.34;99444.25;1561016;91;27696;-78
2022/12/01 04:07:54;;;;;;;27.10;12.10;;;;;;;-0.05;88.38;99444.77;1561183;91;25949;-78
2022/12/01 04:10:21;;;;;;;22.60;10.08;;;;;;;-0.04;88.38;99445.89;1561298;91;25601;-78
2022/12/01 04:12:47;;;;;;;14.00;6.85;;;;;;;0.00;88.35;99448.97;1560915;91;25933;-77
2022/12/01 04:15:14;;;;;;;19.07;7.97;;;;;;;0.03;88.19;99452.54;1561161;91;25571;-70
2022/12/01 04:17:43;;;;;;;25.72;11.48;;;;;;;0.00;88.16;99444.93;1561225;91;27559;-79
2022/12/01 04:20:13;;;;;;;15.35;7.22;;;;;;;0.01;88.12;99443.04;1561018;91;25949;-80
2022/12/01 04:22:39;;;;;;;21.77;10.20;;;;;;;0.05;88.06;99451.80;1561321;91;25510;-73
2022/12/01 04:25:07;;;;;;;24.47;10.40;;;;;;;0.04;87.95;99444.77;1561026;91;26675;-71
2022/12/01 04:27:45;;;;;;;18.95;8.80;;;;;;;0.09;88.08;99450.30;1561183;91;25811;-78
2022/12/01 04:30:25;;;;;;;18.62;8.48;;;;;;;0.10;87.71;99447.92;1588334;87;27636;-79
2022/12/01 04:32:51;;;;;;;17.65;8.95;;;;;;;0.06;87.63;99456.13;1643340;87;25519;-74
2022/12/01 04:35:17;;;;;;;19.17;8.63;;;;;;;0.07;87.87;99461.84;1643088;87;25445;-79
2022/12/01 04:37:44;;;;;;;18.15;7.62;;;;;;;0.07;87.92;99465.05;1642930;87;25730;-69
2022/12/01 04:40:11;;;;;;;25.15;11.75;;;;;;;0.09;87.82;99466.47;1643369;86;26019;-71
2022/12/01 04:42:38;;;;;;;20.37;9.33;;;;;;;0.15;87.85;99462.59;1643416;87;27464;-71
2022/12/01 04:45:06;;;;;;;17.57;8.08;;;;;;;0.18;87.63;99462.14;1643253;87;25759;-79
2022/12/01 04:47:32;;;;;;;20.32;10.72;;;;;;;0.20;87.59;99461.40;1643671;87;25687;-77
2022/12/01 04:49:59;;;;;;;26.35;11.10;;;;;;;0.18;87.53;99462.14;1643114;87;27799;-77
2022/12/01 04:52:25;;;;;;;25.32;10.80;;;;;;;0.19;87.57;99466.47;1643475;87;25601;-72
2022/12/01 04:54:52;;;;;;;24.35;10.48;;;;;;;0.20;87.59;99465.44;1643101;86;27536;-75
2022/12/01 04:57:18;;;;;;;22.07;9.60;;;;;;;0.22;87.54;99466.02;1643143;86;25665;-75
2022/12/01 04:59:44;;;;;;;21.65;11.22;;;;;;;0.20;87.36;99451.97;1643514;87;25628;-77
2022/12/01 05:02:14;;;;;;;15.60;8.50;;;;;;;0.21;87.50;99460.34;1643541;87;25944;-78
2022/12/01 05:04:48;;;;;;;20.60;10.03;;;;;;;0.20;87.41;99455.47;1643116;87;25487;-77
2022/12/01 05:07:21;;;;;;;21.15;8.93;;;;;;;0.18;87.21;99457.58;1643333;86;26945;-78
2022/12/01 05:09:53;;;;;;;17.50;8.10;;;;;;;0.18;87.18;99451.36;1643492;87;25491;-68
2022/12/01 05:12:30;;;;;;;13.18;6.55;;;;;;;0.19;87.30;99454.34;1643650;87;25640;-76
2022/12/01 05:15:05;;;;;;;23.30;10.88;;;;;;;0.20;87.33;99458.70;1643367;87;25776;-76
2022/12/01 05:17:40;;;;;;;18.52;9.20;;;;;;;0.24;87.40;99458.55;1643266;87;25685;-77
2022/12/01 05:22:58;;;;;;;24.18;11.73;;;;;;;0.30;87.17;99461.69;1643049;87;25981;-77
2022/12/01 05:25:25;;;;;;;13.50;6.95;;;;;;;0.32;87.02;99458.22;1643101;87;25631;-76
2022/12/01 05:27:51;;;;;;;26.12;12.73;;;;;;;0.28;86.74;99455.69;1643087;87;27815;-74
2022/12/01 05:30:18;;;;;;;28.42;13.00;;;;;;;0.29;86.82;99453.28;1643178;87;25704;-78
2022/12/01 05:32:44;;;;;;;17.80;8.15;;;;;;;0.34;86.77;99450.73;1643241;86;27461;-77
2022/12/01 05:35:10;;;;;;;36.40;15.98;;;;;;;0.35;86.30;99455.08;1639465;86;27263;-76
2022/12/01 05:37:36;;;;;;;34.10;15.10;;;;;;;0.36;86.19;99447.82;1647603;85;25715;-76
2022/12/01 05:40:04;;;;;;;12.75;6.78;;;;;;;0.36;86.24;99456.74;1656783;85;25791;-78
2022/12/01 05:42:30;;;;;;;22.05;11.35;;;;;;;0.39;86.17;99458.67;1662000;85;25624;-77
2022/12/01 05:44:56;;;;;;;23.85;11.05;;;;;;;0.39;86.17;99454.63;1672529;85;27422;-70
2022/12/01 05:47:23;;;;;;;23.02;10.32;;;;;;;0.43;86.28;99459.34;1672576;85;25637;-78
2022/12/01 05:49:49;;;;;;;14.98;7.35;;;;;;;0.48;86.05;99463.54;1672678;85;25680;-77
2022/12/01 05:52:15;;;;;;;20.00;9.50;;;;;;;0.50;85.77;99464.66;1672297;85;25747;-76
2022/12/01 05:54:42;;;;;;;20.55;11.03;;;;;;;0.49;85.76;99463.02;1672288;85;25668;-76
2022/12/01 05:57:08;;;;;;;20.23;10.28;;;;;;;0.52;86.10;99461.73;1672534;85;27443;-70
2022/12/01 05:59:34;;;;;;;18.92;9.70;;;;;;;0.53;85.81;99458.81;1672355;84;25493;-75
2022/12/01 06:02:01;;;;;;;23.30;11.93;;;;;;;0.57;85.62;99466.74;1672140;85;25483;-76
2022/12/01 06:04:27;;;;;;;17.02;9.00;;;;;;;0.60;85.60;99467.64;1672547;85;26568;-77
2022/12/01 06:06:53;;;;;;;12.10;6.25;;;;;;;0.61;85.08;99465.77;1672584;85;25674;-75
2022/12/01 06:09:20;;;;;;;10.48;4.83;;;;;;;0.62;84.94;99471.45;1672510;85;27464;-76
2022/12/01 06:11:46;;;;;;;18.67;8.65;;;;;;;0.60;85.04;99477.59;1672065;85;25683;-74
2022/12/01 06:14:13;;;;;;;21.65;11.88;;;;;;;0.62;85.22;99483.59;1672147;85;25695;-76
2022/12/01 06:16:39;;;;;;;12.28;5.87;;;;;;;0.65;85.16;99488.53;1672423;85;25856;-77
2022/12/01 06:19:05;;;;;;;16.20;8.55;;;;;;;0.63;84.87;99491.97;1672537;85;25593;-76
2022/12/01 06:21:32;;;;;;;13.72;6.72;;;;;;;0.62;84.96;99491.69;1672496;85;28323;-73
2022/12/01 06:23:58;;;;;;;19.65;10.50;;;;;;;0.62;84.70;99486.29;1672529;85;25859;-75
2022/12/01 06:26:24;;;;;;;18.85;8.30;;;;;;;0.65;84.85;99485.84;1672094;85;25719;-75
2022/12/01 06:28:51;;;;;;;14.93;6.83;;;;;;;0.65;84.62;99486.36;1672085;85;25763;-76
2022/12/01 06:31:17;;;;;;;18.87;9.93;;;;;;;0.62;84.90;99488.48;1668999;85;25715;-76
2022/12/01 06:33:43;;;;;;;19.85;9.53;;;;;;;0.62;84.79;99483.08;1672424;85;28179;-69
2022/12/01 06:36:10;;;;;;;10.23;5.08;;;;;;;0.65;84.80;99481.79;1672339;85;25489;-77
2022/12/01 06:38:37;;;;;;;16.02;8.30;;;;;;;0.65;84.50;99478.26;1678467;85;25454;-76
2022/12/01 06:41:04;;;;;;;10.20;5.53;;;;;;;0.58;84.30;99479.72;1684056;85;25777;-76
2022/12/01 06:43:31;;;;;;;14.85;7.55;;;;;;;0.55;84.54;99482.31;1684359;85;25623;-77
2022/12/01 06:45:57;;;;;;;14.20;6.15;;;;;;;0.53;84.72;99483.09;1684078;85;27469;-76
2022/12/01 06:48:24;;;;;;;19.73;9.35;;;;;;;0.53;84.75;99481.73;1680336;85;26460;-75
2022/12/01 06:50:50;;;;;;;22.55;10.15;;;;;;;0.55;84.80;99488.26;1684149;85;25715;-76
2022/12/01 06:53:16;;;;;;;14.80;6.62;;;;;;;0.58;84.95;99484.56;1684438;85;25728;-76
2022/12/01 06:55:43;;;;;;;19.50;8.45;;;;;;;0.60;84.76;99483.82;1684110;85;26237;-71
2022/12/01 06:58:09;;;;;;;18.48;9.93;;;;;;;0.61;84.80;99490.85;1684034;85;27521;-74
2022/12/01 07:00:35;;;;;;;15.45;7.70;;;;;;;0.64;85.08;99499.55;1683985;85;25454;-71
2022/12/01 07:03:01;;;;;;;20.88;9.03;;;;;;;0.65;84.79;99490.40;1684067;85;25761;-68
2022/12/01 07:05:28;;;;;;;14.78;7.05;;;;;;;0.68;84.71;99494.83;1684015;85;27917;-75
2022/12/01 07:07:55;;;;;;;17.80;9.70;;;;;;;0.66;84.54;99486.67;1684138;85;25426;-72
2022/12/01 07:10:21;;;;;;;16.07;7.55;;;;;;;0.62;84.68;99487.12;1684354;85;27919;-75
2022/12/01 07:12:48;;;;;;;10.78;6.15;;;;;;;0.57;84.78;99491.53;1683933;85;25634;-74
2022/12/01 07:15:14;;;;;;;19.70;9.05;;;;;;;0.57;84.95;99489.67;1684059;85;25663;-67
2022/12/01 07:17:40;;;;;;;21.62;10.38;;;;;;;0.60;85.00;99495.12;1684033;85;25761;-71
2022/12/01 07:20:09;;;;;;;12.70;7.05;;;;;;;0.62;84.83;99501.12;1684078;85;25632;-69
2022/12/01 07:22:35;;;;;;;11.22;6.03;;;;;;;0.62;84.55;99491.69;1684390;85;27419;-75
2022/12/01 07:25:02;;;;;;;17.40;9.40;;;;;;;0.62;84.62;99495.22;1684329;85;25779;-75
2022/12/01 07:27:32;;;;;;;18.82;8.55;;;;;;;0.63;84.71;99497.37;1684039;85;25440;-75
2022/12/01 07:29:58;;;;;;;16.17;8.90;;;;;;;0.64;84.56;99496.34;1680551;85;26479;-68
2022/12/01 07:32:24;;;;;;;10.75;5.20;;;;;;;0.71;84.63;99498.42;1684480;85;25620;-68
2022/12/01 07:34:51;;;;;;;14.75;7.80;;;;;;;0.74;84.29;99497.97;1684336;85;28100;-74
2022/12/01 07:37:17;;;;;;;23.32;9.20;;;;;;;0.74;84.38;99495.27;1683947;85;25680;-67
2022/12/01 07:39:43;;;;;;;32.65;13.80;;;;;;;0.74;84.42;99504.71;1684335;85;25672;-69
2022/12/01 07:42:10;;;;;;;22.27;11.40;;;;;;;0.73;84.50;99508.47;1683977;85;25742;-75
2022/12/01 07:44:36;;;;;;;14.85;7.75;;;;;;;0.75;84.57;99509.05;1684161;85;25620;-68
2022/12/01 07:47:03;;;;;;;18.62;7.58;;;;;;;0.76;84.31;99507.18;1684101;85;27396;-69
2022/12/01 07:49:29;;;;;;;21.65;9.90;;;;;;;0.74;84.10;99509.27;1684184;85;25757;-74
2022/12/01 07:51:56;;;;;;;21.48;8.43;;;;;;;0.72;84.29;99510.05;1684077;85;25734;-73
2022/12/01 07:54:24;;;;;;;33.35;11.03;;;;;;;0.71;84.52;99503.81;1683918;85;25799;-73
2022/12/01 07:56:50;;;;;;;19.65;8.40;;;;;;;0.70;84.48;99502.18;1684216;85;25687;-72
2022/12/01 07:59:16;;;;;;;22.67;10.48;;;;;;;0.71;84.43;99507.03;1684467;85;27413;-68
2022/12/01 08:01:44;;;;;;;31.93;11.65;;;;;;;0.72;84.49;99506.00;1684604;85;25680;-68
2022/12/01 08:04:11;;;;;;;13.40;7.28;;;;;;;0.75;84.63;99509.05;1684093;85;25473;-68
2022/12/01 08:06:38;;;;;;;27.05;12.45;;;;;;;0.70;84.31;99508.92;1684007;85;25807;-69
2022/12/01 08:09:05;;;;;;;25.00;10.63;;;;;;;0.69;84.60;99506.45;1684417;85;25470;-68
2022/12/01 08:11:31;;;;;;;25.30;9.93;;;;;;;0.71;84.83;99509.22;1684328;85;27805;-75
2022/12/01 08:13:57;;;;;;;10.28;5.55;;;;;;;0.74;84.70;99508.76;1684196;85;25843;-72
2022/12/01 08:16:25;;;;;;;14.03;7.28;;;;;;;0.71;84.58;99513.26;1684082;85;25451;-72
2022/12/01 08:18:51;;;;;;;23.87;10.18;;;;;;;0.74;84.75;99517.37;1683983;85;25774;-71
2022/12/01 08:21:21;;;;;;;19.02;9.33;;;;;;;0.75;84.67;99511.75;1684334;85;25600;-75
2022/12/01 08:23:57;;;;;;;21.55;8.18;;;;;;;0.75;84.50;99515.80;1684466;85;28090;-75
2022/12/01 08:26:34;;;;;;;21.35;9.65;;;;;;;0.73;84.29;99504.42;1681684;85;26542;-70
2022/12/01 08:29:01;;;;;;;13.83;6.65;;;;;;;0.69;84.58;99507.80;1684451;85;25609;-69
2022/12/01 08:31:35;;;;;;;23.77;8.80;;;;;;;0.70;84.66;99521.06;1684303;85;25752;-71
2022/12/01 08:34:06;;;;;;;21.42;8.70;;;;;;;0.71;84.75;99519.17;1684145;85;25663;-74
2022/12/01 08:36:34;;;;;;;25.75;11.18;;;;;;;0.68;84.61;99514.23;1684481;85;27375;-73
2022/12/01 08:39:01;;;;;;;23.25;9.45;;;;;;;0.67;84.64;99511.24;1684170;85;26570;-75
2022/12/01 08:41:28;;;;;;;17.52;7.97;;;;;;;0.70;84.78;99511.63;1684590;85;25680;-75
2022/12/01 08:43:55;;;;;;;14.05;7.00;;;;;;;0.68;84.77;99520.45;1684156;85;25790;-73
2022/12/01 08:46:21;;;;;;;28.70;10.95;;;;;;;0.68;84.86;99512.36;1656630;85;25679;-68
2022/12/01 08:48:48;;;;;;;41.18;13.45;;;;;;;0.69;85.03;99519.40;1684418;84;27511;-72
2022/12/01 08:51:17;;;;;;;36.40;13.25;;;;;;;0.72;85.11;99512.20;1684154;85;25490;-71
2022/12/01 08:53:55;;;;;;;25.72;10.78;;;;;;;0.77;85.18;99513.41;1684566;85;25732;-71
2022/12/01 08:56:36;;;;;;;33.67;12.30;;;;;;;0.80;84.87;99519.16;1684441;85;25841;-68
2022/12/01 08:59:03;;;;;;;18.07;8.30;;;;;;;0.83;84.85;99517.87;1684647;85;25664;-68
2022/12/01 09:01:31;;;;;;;22.22;10.15;;;;;;;0.83;84.64;99520.05;1684517;85;27622;-67
2022/12/01 09:04:07;;;;;;;26.95;12.07;;;;;;;0.81;84.72;99521.34;1684078;85;25402;-69
2022/12/01 09:06:40;;;;;;;16.42;7.35;;;;;;;0.84;84.86;99516.30;1684273;85;25605;-75
2022/12/01 09:09:17;;;;;;;27.60;9.50;;;;;;;0.83;84.62;99509.27;1683325;85;27804;-71
2022/12/01 09:11:45;;;;;;;17.82;9.68;;;;;;;0.82;84.91;99510.84;1684242;85;25628;-68
2022/12/01 09:14:14;;;;;;;18.70;9.33;;;;;;;0.83;84.82;99517.36;1684519;85;27640;-74
2022/12/01 09:16:42;;;;;;;20.95;6.47;;;;;;;0.86;84.92;99516.91;1684258;85;25666;-74
2022/12/01 09:19:09;;;;;;;24.98;11.10;;;;;;;0.83;84.80;99512.47;1684547;85;25423;-71
2022/12/01 09:21:36;;;;;;;23.25;9.05;;;;;;;0.78;85.05;99511.00;1684475;85;25711;-68
2022/12/01 09:24:05;;;;;;;13.65;7.30;;;;;;;0.72;85.12;99513.55;1680618;85;25720;-67
2022/12/01 09:26:33;;;;;;;21.52;9.63;;;;;;;0.74;85.05;99508.76;1684558;85;27483;-67
2022/12/01 09:29:05;;;;;;;21.85;10.85;;;;;;;0.75;85.13;99500.15;1684495;85;25671;-71
2022/12/01 09:31:33;;;;;;;12.18;5.33;;;;;;;0.75;85.09;99503.65;1682998;85;25715;-68
2022/12/01 09:34:03;;;;;;;18.00;9.53;;;;;;;0.76;84.76;99500.44;1684436;85;25843;-73
2022/12/01 09:36:32;;;;;;;12.65;5.42;;;;;;;0.77;84.85;99500.73;1684755;85;25677;-72
2022/12/01 09:38:59;;;;;;;23.02;10.25;;;;;;;0.77;84.82;99504.77;1684358;85;27709;-67
2022/12/01 09:41:49;;;;;;;22.32;9.98;;;;;;;0.78;85.02;99494.81;1684108;85;25683;-68
2022/12/01 09:44:47;;;;;;;16.87;8.25;;;;;;;0.84;85.00;99489.85;1684358;85;25593;-71
2022/12/01 09:47:28;;;;;;;15.40;7.95;;;;;;;0.84;84.36;99491.20;1664429;85;25637;-73
2022/12/01 09:50:15;;;;;;;16.20;6.80;;;;;;;0.77;84.28;99489.93;1641685;85;26388;-74
2022/12/01 09:52:52;;;;;;;20.00;10.40;;;;;;;0.76;84.49;99477.50;1649846;86;27488;-72
2022/12/01 09:55:23;;;;;;;15.08;6.75;;;;;;;0.68;84.62;99479.98;1655533;85;25704;-73
2022/12/01 09:57:53;;;;;;;18.15;8.18;;;;;;;0.68;84.66;99484.55;1660006;85;26459;-68
2022/12/01 10:00:24;;;;;;;19.25;8.58;;;;;;;0.65;84.36;99478.26;1659268;86;26437;-73
2022/12/01 10:03:15;;;;;;;14.78;7.33;;;;;;;0.64;84.52;99476.63;1660036;85;25748;-67
2022/12/01 10:06:05;;;;;;;11.25;5.60;;;;;;;0.67;84.59;99470.77;1660435;86;27560;-68
2022/12/01 10:08:36;;;;;;;14.80;7.22;;;;;;;0.70;84.74;99477.06;1660416;85;25507;-68
2022/12/01 10:11:29;;;;;;;11.95;6.30;;;;;;;0.69;84.72;99467.33;1660438;86;25659;-68
2022/12/01 10:13:55;;;;;;;16.05;7.33;;;;;;;0.59;84.94;99463.30;1660060;86;25762;-69
2022/12/01 10:16:36;;;;;;;21.07;11.38;;;;;;;0.58;85.36;99468.37;1660272;86;25710;-73
2022/12/01 10:19:13;;;;;;;17.62;9.35;;;;;;;0.60;85.31;99476.24;1661031;85;28144;-69
2022/12/01 10:22:04;;;;;;;16.37;7.72;;;;;;;0.59;85.46;99467.34;1656726;86;26118;-71
2022/12/01 10:24:45;;;;;;;19.67;9.50;;;;;;;0.65;85.46;99468.81;1660178;86;25654;-71
2022/12/01 10:27:23;;;;;;;;;;;;;;;0.68;85.32;99471.06;1663103;86;26371;-73
2022/12/01 10:30:01;;;;;;;16.20;7.83;;;;;;;0.70;85.33;99469.80;1660094;86;25611;-70
2022/12/01 10:32:56;;;;;;;16.67;7.25;;;;;;;0.66;85.03;99468.59;1670484;85;27406;-72
2022/12/01 10:35:36;;;;;;;13.90;6.90;;;;;;;0.66;84.91;99463.20;1664749;85;25435;-74
2022/12/01 10:38:02;;;;;;;17.10;8.60;;;;;;;0.65;84.55;99464.26;1653423;86;25688;-72
2022/12/01 10:40:33;;;;;;;14.75;7.65;;;;;;;0.69;84.62;99456.54;1647155;86;25679;-67
2022/12/01 10:42:57;;;;;;;8.88;5.40;;;;;;;0.72;84.46;99456.89;1644408;87;25622;-67
2022/12/01 10:45:28;;;;;;;19.30;10.28;;;;;;;0.74;84.42;99464.75;1645362;86;27300;-74
2022/12/01 10:48:20;;;;;;;7.87;4.45;;;;;;;0.71;84.53;99453.07;1645194;87;25834;-67
2022/12/01 10:50:56;;;;;;;24.30;10.63;;;;;;;0.72;84.75;99450.69;1645160;87;25642;-67
2022/12/01 10:53:30;;;;;;;18.55;9.08;;;;;;;0.77;84.82;99451.36;1645338;87;26389;-67
2022/12/01 10:56:17;;;;;;;14.68;7.90;;;;;;;0.81;84.66;99457.38;1645252;87;25953;-69
2022/12/01 10:58:53;;;;;;;15.13;6.97;;;;;;;0.83;84.38;99462.55;1645052;87;28463;-70
2022/12/01 11:01:33;;;;;;;12.78;5.95;;;;;;;0.81;84.59;99456.03;1645233;87;25467;-68
2022/12/01 11:04:29;;;;;;;16.10;6.87;;;;;;;0.80;84.56;99455.75;1644941;87;25718;-67
2022/12/01 11:06:57;;;;;;;22.07;10.25;;;;;;;0.75;84.58;99448.34;1645098;86;25674;-74
2022/12/01 11:09:27;;;;;;;14.25;7.87;;;;;;;0.74;84.78;99449.92;1645284;86;25626;-71
2022/12/01 11:12:01;;;;;;;11.63;6.00;;;;;;;0.77;84.10;99446.77;1650891;85;27776;-70
2022/12/01 11:14:49;;;;;;;12.98;6.53;;;;;;;0.76;83.87;99446.47;1681727;85;25738;-74
2022/12/01 11:17:41;;;;;;;16.15;8.63;;;;;;;0.80;83.69;99445.50;1667550;85;26338;-67
2022/12/01 11:20:34;;;;;;;37.73;18.73;;;;;;;0.75;83.38;99444.29;1642241;86;25717;-69
2022/12/01 11:23:23;;;;;;;34.18;19.70;;;;;;;0.73;83.47;99453.16;1653039;85;25784;-72
2022/12/01 11:26:25;;;;;;;41.08;23.92;;;;;;;0.76;83.82;99445.13;1642429;87;27857;-74
2022/12/01 11:28:59;;;;;;;24.77;12.37;;;;;;;0.83;83.70;99453.11;1642496;87;25847;-73
2022/12/01 11:31:48;;;;;;;28.80;15.05;;;;;;;0.88;83.77;99457.30;1642185;86;25683;-67
2022/12/01 11:34:22;;;;;;;18.25;10.78;;;;;;;0.94;83.56;99450.16;1642530;87;25719;-71
2022/12/01 11:36:55;;;;;;;18.98;9.90;;;;;;;0.91;83.39;99449.27;1642483;87;25743;-75
2022/12/01 11:39:40;;;;;;;16.30;9.53;;;;;;;0.89;83.40;99452.73;1643670;86;27348;-74
2022/12/01 11:42:26;;;;;;;15.20;7.05;;;;;;;0.86;83.49;99449.95;1652153;86;25718;-70
2022/12/01 11:44:58;;;;;;;35.68;22.95;;;;;;;0.84;83.47;99445.33;1650018;86;25750;-73
2022/12/01 11:47:26;;;;;;;16.75;9.35;;;;;;;0.86;83.46;99444.04;1644467;86;25737;-74
2022/12/01 11:49:57;;;;;;;19.02;9.70;;;;;;;0.86;83.51;99442.69;1642076;87;25774;-74
2022/12/01 11:52:35;;;;;;;17.32;9.63;;;;;;;0.88;83.49;99441.11;1642539;87;28326;-72
2022/12/01 11:55:16;;;;;;;17.10;10.70;;;;;;;0.91;83.25;99444.70;1650340;86;25627;-75